sensor_id;sensor_type;location;lat;lon;timestamp;P1;durP1;ratioP1;P2;durP2;ratioP2
31298;SDS011;17927;52.350;13.402;2023-09-12T00:01:46;10.10;;;8.57;;
31298;SDS011;17927;52.350;13.402;2023-09-12T00:04:12;7.97;;;7.18;;
31298;SDS011;17927;52.350;13.402;2023-09-12T00:06:37;21.30;;;10.85;;
31298;SDS011;17927;52.350;13.402;2023-09-12T00:09:03;13.23;;;8.43;;
31298;SDS011;17927;52.350;13.402;2023-09-12T00:11:30;9.55;;;8.60;;
31298;SDS011;17927;52.350;13.402;2023-09-12T00:13:55;13.10;;;9.68;;
31298;SDS011;17927;52.350;13.402;2023-09-12T00:16:21;10.48;;;7.85;;
31298;SDS011;17927;52.350;13.402;2023-09-12T00:18:46;9.80;;;8.55;;
31298;SDS011;17927;52.350;13.402;2023-09-12T00:21:11;8.90;;;7.95;;
31298;SDS011;17927;52.350;13.402;2023-09-12T00:23:36;11.65;;;8.88;;
31298;SDS011;17927;52.350;13.402;2023-09-12T00:26:02;9.85;;;8.95;;
31298;SDS011;17927;52.350;13.402;2023-09-12T00:28:27;12.82;;;8.77;;
31298;SDS011;17927;52.350;13.402;2023-09-12T00:30:52;9.05;;;8.25;;
31298;SDS011;17927;52.350;13.402;2023-09-12T00:33:17;13.82;;;8.98;;
31298;SDS011;17927;52.350;13.402;2023-09-12T00:35:43;11.07;;;8.70;;
31298;SDS011;17927;52.350;13.402;2023-09-12T00:38:09;11.95;;;8.38;;
31298;SDS011;17927;52.350;13.402;2023-09-12T00:40:34;12.00;;;8.18;;
31298;SDS011;17927;52.350;13.402;2023-09-12T00:42:59;12.27;;;8.07;;
31298;SDS011;17927;52.350;13.402;2023-09-12T00:45:25;9.55;;;8.65;;
31298;SDS011;17927;52.350;13.402;2023-09-12T00:47:50;15.95;;;8.80;;
31298;SDS011;17927;52.350;13.402;2023-09-12T00:50:16;13.65;;;8.30;;
31298;SDS011;17927;52.350;13.402;2023-09-12T00:52:43;12.68;;;8.55;;
31298;SDS011;17927;52.350;13.402;2023-09-12T00:55:10;14.98;;;9.10;;
31298;SDS011;17927;52.350;13.402;2023-09-12T00:57:36;11.05;;;8.40;;
31298;SDS011;17927;52.350;13.402;2023-09-12T01:00:04;10.00;;;8.25;;
31298;SDS011;17927;52.350;13.402;2023-09-12T01:02:41;11.60;;;8.10;;
31298;SDS011;17927;52.350;13.402;2023-09-12T01:05:09;11.27;;;8.55;;
31298;SDS011;17927;52.350;13.402;2023-09-12T01:07:35;9.75;;;8.20;;
31298;SDS011;17927;52.350;13.402;2023-09-12T01:10:01;10.13;;;8.30;;
31298;SDS011;17927;52.350;13.402;2023-09-12T01:12:27;11.07;;;8.73;;
31298;SDS011;17927;52.350;13.402;2023-09-12T01:14:54;9.30;;;8.27;;
31298;SDS011;17927;52.350;13.402;2023-09-12T01:17:19;10.93;;;8.85;;
31298;SDS011;17927;52.350;13.402;2023-09-12T01:19:45;8.95;;;8.05;;
31298;SDS011;17927;52.350;13.402;2023-09-12T01:25:21;10.73;;;8.65;;
31298;SDS011;17927;52.350;13.402;2023-09-12T01:27:56;9.38;;;8.48;;
31298;SDS011;17927;52.350;13.402;2023-09-12T01:30:24;12.35;;;8.45;;
31298;SDS011;17927;52.350;13.402;2023-09-12T01:32:52;13.55;;;8.25;;
31298;SDS011;17927;52.350;13.402;2023-09-12T01:35:18;9.35;;;8.27;;
31298;SDS011;17927;52.350;13.402;2023-09-12T01:37:43;10.52;;;9.18;;
31298;SDS011;17927;52.350;13.402;2023-09-12T01:40:09;10.55;;;9.15;;
31298;SDS011;17927;52.350;13.402;2023-09-12T01:42:36;10.43;;;9.43;;
31298;SDS011;17927;52.350;13.402;2023-09-12T01:45:06;10.77;;;9.00;;
31298;SDS011;17927;52.350;13.402;2023-09-12T01:47:34;10.00;;;9.10;;
31298;SDS011;17927;52.350;13.402;2023-09-12T01:50:01;11.05;;;9.32;;
31298;SDS011;17927;52.350;13.402;2023-09-12T01:52:28;13.43;;;8.27;;
31298;SDS011;17927;52.350;13.402;2023-09-12T01:54:54;10.25;;;9.25;;
31298;SDS011;17927;52.350;13.402;2023-09-12T01:57:20;10.75;;;8.25;;
31298;SDS011;17927;52.350;13.402;2023-09-12T01:59:46;11.05;;;8.32;;
31298;SDS011;17927;52.350;13.402;2023-09-12T02:02:12;10.90;;;9.45;;
31298;SDS011;17927;52.350;13.402;2023-09-12T02:04:38;11.10;;;9.15;;
31298;SDS011;17927;52.350;13.402;2023-09-12T02:07:03;16.05;;;9.50;;
31298;SDS011;17927;52.350;13.402;2023-09-12T02:09:28;9.70;;;8.70;;
31298;SDS011;17927;52.350;13.402;2023-09-12T02:11:54;9.30;;;8.50;;
31298;SDS011;17927;52.350;13.402;2023-09-12T02:14:19;9.73;;;8.63;;
31298;SDS011;17927;52.350;13.402;2023-09-12T02:16:44;10.93;;;8.85;;
31298;SDS011;17927;52.350;13.402;2023-09-12T02:19:10;9.63;;;8.73;;
31298;SDS011;17927;52.350;13.402;2023-09-12T02:21:35;12.60;;;8.52;;
31298;SDS011;17927;52.350;13.402;2023-09-12T02:24:00;9.75;;;8.68;;
31298;SDS011;17927;52.350;13.402;2023-09-12T02:26:26;10.02;;;8.57;;
31298;SDS011;17927;52.350;13.402;2023-09-12T02:28:51;8.32;;;7.43;;
31298;SDS011;17927;52.350;13.402;2023-09-12T02:31:16;11.18;;;8.82;;
31298;SDS011;17927;52.350;13.402;2023-09-12T02:33:41;9.13;;;7.90;;
31298;SDS011;17927;52.350;13.402;2023-09-12T02:36:07;9.15;;;8.30;;
31298;SDS011;17927;52.350;13.402;2023-09-12T02:38:32;9.25;;;8.38;;
31298;SDS011;17927;52.350;13.402;2023-09-12T02:40:58;9.80;;;8.77;;
31298;SDS011;17927;52.350;13.402;2023-09-12T02:43:23;10.00;;;8.88;;
31298;SDS011;17927;52.350;13.402;2023-09-12T02:45:49;11.05;;;8.02;;
31298;SDS011;17927;52.350;13.402;2023-09-12T02:48:14;9.43;;;8.50;;
31298;SDS011;17927;52.350;13.402;2023-09-12T02:50:39;9.45;;;8.52;;
31298;SDS011;17927;52.350;13.402;2023-09-12T02:53:04;9.48;;;8.52;;
31298;SDS011;17927;52.350;13.402;2023-09-12T02:55:29;8.90;;;8.07;;
31298;SDS011;17927;52.350;13.402;2023-09-12T02:57:55;8.70;;;7.80;;
31298;SDS011;17927;52.350;13.402;2023-09-12T03:00:22;12.05;;;8.10;;
31298;SDS011;17927;52.350;13.402;2023-09-12T03:02:47;13.43;;;8.32;;
31298;SDS011;17927;52.350;13.402;2023-09-12T03:05:12;10.18;;;7.82;;
31298;SDS011;17927;52.350;13.402;2023-09-12T03:07:37;10.38;;;8.25;;
31298;SDS011;17927;52.350;13.402;2023-09-12T03:10:03;10.00;;;8.65;;
31298;SDS011;17927;52.350;13.402;2023-09-12T03:12:28;9.70;;;8.73;;
31298;SDS011;17927;52.350;13.402;2023-09-12T03:14:53;12.75;;;9.57;;
31298;SDS011;17927;52.350;13.402;2023-09-12T03:17:19;10.25;;;8.50;;
31298;SDS011;17927;52.350;13.402;2023-09-12T03:19:45;9.95;;;7.88;;
31298;SDS011;17927;52.350;13.402;2023-09-12T03:22:10;11.02;;;8.57;;
31298;SDS011;17927;52.350;13.402;2023-09-12T03:24:35;10.30;;;7.82;;
31298;SDS011;17927;52.350;13.402;2023-09-12T03:27:00;9.13;;;7.95;;
31298;SDS011;17927;52.350;13.402;2023-09-12T03:29:26;12.85;;;9.23;;
31298;SDS011;17927;52.350;13.402;2023-09-12T03:31:51;10.63;;;9.15;;
31298;SDS011;17927;52.350;13.402;2023-09-12T03:34:16;12.00;;;9.88;;
31298;SDS011;17927;52.350;13.402;2023-09-12T03:36:42;11.60;;;10.50;;
31298;SDS011;17927;52.350;13.402;2023-09-12T03:39:07;12.70;;;11.25;;
31298;SDS011;17927;52.350;13.402;2023-09-12T03:41:33;13.55;;;11.35;;
31298;SDS011;17927;52.350;13.402;2023-09-12T03:43:59;11.77;;;9.90;;
31298;SDS011;17927;52.350;13.402;2023-09-12T03:46:25;13.27;;;11.95;;
31298;SDS011;17927;52.350;13.402;2023-09-12T03:48:50;12.45;;;10.07;;
31298;SDS011;17927;52.350;13.402;2023-09-12T03:51:15;12.48;;;9.88;;
31298;SDS011;17927;52.350;13.402;2023-09-12T03:53:40;9.30;;;8.48;;
31298;SDS011;17927;52.350;13.402;2023-09-12T03:56:06;11.75;;;9.93;;
31298;SDS011;17927;52.350;13.402;2023-09-12T03:58:31;11.55;;;9.45;;
31298;SDS011;17927;52.350;13.402;2023-09-12T04:00:56;12.65;;;9.98;;
31298;SDS011;17927;52.350;13.402;2023-09-12T04:03:22;11.02;;;9.82;;
31298;SDS011;17927;52.350;13.402;2023-09-12T04:05:47;10.10;;;9.10;;
31298;SDS011;17927;52.350;13.402;2023-09-12T04:08:13;12.65;;;9.02;;
31298;SDS011;17927;52.350;13.402;2023-09-12T04:10:38;13.30;;;9.68;;
31298;SDS011;17927;52.350;13.402;2023-09-12T04:13:04;10.00;;;9.10;;
31298;SDS011;17927;52.350;13.402;2023-09-12T04:15:29;11.73;;;8.50;;
31298;SDS011;17927;52.350;13.402;2023-09-12T04:17:54;9.48;;;8.55;;
31298;SDS011;17927;52.350;13.402;2023-09-12T04:20:19;8.80;;;8.00;;
31298;SDS011;17927;52.350;13.402;2023-09-12T04:22:45;9.30;;;8.10;;
31298;SDS011;17927;52.350;13.402;2023-09-12T04:25:10;9.15;;;8.35;;
31298;SDS011;17927;52.350;13.402;2023-09-12T04:27:36;8.95;;;8.15;;
31298;SDS011;17927;52.350;13.402;2023-09-12T04:30:01;9.73;;;8.30;;
31298;SDS011;17927;52.350;13.402;2023-09-12T04:32:27;8.73;;;7.95;;
31298;SDS011;17927;52.350;13.402;2023-09-12T04:34:52;10.13;;;8.70;;
31298;SDS011;17927;52.350;13.402;2023-09-12T04:37:17;11.05;;;8.93;;
31298;SDS011;17927;52.350;13.402;2023-09-12T04:39:43;12.45;;;9.63;;
31298;SDS011;17927;52.350;13.402;2023-09-12T04:42:08;10.95;;;9.13;;
31298;SDS011;17927;52.350;13.402;2023-09-12T04:44:34;13.90;;;9.77;;
31298;SDS011;17927;52.350;13.402;2023-09-12T04:47:01;12.77;;;10.18;;
31298;SDS011;17927;52.350;13.402;2023-09-12T04:49:27;14.90;;;10.45;;
31298;SDS011;17927;52.350;13.402;2023-09-12T04:51:53;10.80;;;9.77;;
31298;SDS011;17927;52.350;13.402;2023-09-12T04:54:18;11.05;;;9.95;;
31298;SDS011;17927;52.350;13.402;2023-09-12T04:56:43;11.88;;;10.68;;
31298;SDS011;17927;52.350;13.402;2023-09-12T04:59:08;14.35;;;10.30;;
31298;SDS011;17927;52.350;13.402;2023-09-12T05:01:33;16.48;;;11.70;;
31298;SDS011;17927;52.350;13.402;2023-09-12T05:03:59;13.05;;;11.65;;
31298;SDS011;17927;52.350;13.402;2023-09-12T05:06:24;14.60;;;11.90;;
31298;SDS011;17927;52.350;13.402;2023-09-12T05:08:49;15.73;;;12.35;;
31298;SDS011;17927;52.350;13.402;2023-09-12T05:11:14;14.52;;;12.13;;
31298;SDS011;17927;52.350;13.402;2023-09-12T05:13:40;14.50;;;12.63;;
31298;SDS011;17927;52.350;13.402;2023-09-12T05:16:06;14.55;;;12.50;;
31298;SDS011;17927;52.350;13.402;2023-09-12T05:18:31;15.05;;;11.25;;
31298;SDS011;17927;52.350;13.402;2023-09-12T05:20:56;15.40;;;11.32;;
31298;SDS011;17927;52.350;13.402;2023-09-12T05:23:22;15.25;;;10.60;;
31298;SDS011;17927;52.350;13.402;2023-09-12T05:25:48;14.55;;;11.13;;
31298;SDS011;17927;52.350;13.402;2023-09-12T05:28:13;13.40;;;11.60;;
31298;SDS011;17927;52.350;13.402;2023-09-12T05:30:41;17.42;;;11.07;;
31298;SDS011;17927;52.350;13.402;2023-09-12T05:33:07;23.08;;;12.07;;
31298;SDS011;17927;52.350;13.402;2023-09-12T05:35:32;17.85;;;12.25;;
31298;SDS011;17927;52.350;13.402;2023-09-12T05:37:58;30.95;;;12.20;;
31298;SDS011;17927;52.350;13.402;2023-09-12T05:40:23;15.63;;;11.40;;
31298;SDS011;17927;52.350;13.402;2023-09-12T05:42:48;17.80;;;11.82;;
31298;SDS011;17927;52.350;13.402;2023-09-12T05:45:13;14.65;;;11.98;;
31298;SDS011;17927;52.350;13.402;2023-09-12T05:47:38;15.73;;;12.30;;
31298;SDS011;17927;52.350;13.402;2023-09-12T05:50:04;15.75;;;13.00;;
31298;SDS011;17927;52.350;13.402;2023-09-12T05:52:31;14.77;;;10.90;;
31298;SDS011;17927;52.350;13.402;2023-09-12T05:54:57;21.33;;;13.48;;
31298;SDS011;17927;52.350;13.402;2023-09-12T05:57:22;18.42;;;11.38;;
31298;SDS011;17927;52.350;13.402;2023-09-12T05:59:47;14.38;;;11.77;;
31298;SDS011;17927;52.350;13.402;2023-09-12T06:02:12;11.80;;;10.63;;
31298;SDS011;17927;52.350;13.402;2023-09-12T06:04:38;14.30;;;11.90;;
31298;SDS011;17927;52.350;13.402;2023-09-12T06:07:03;13.80;;;11.25;;
31298;SDS011;17927;52.350;13.402;2023-09-12T06:09:29;16.42;;;10.63;;
31298;SDS011;17927;52.350;13.402;2023-09-12T06:11:54;10.82;;;9.73;;
31298;SDS011;17927;52.350;13.402;2023-09-12T06:14:19;15.85;;;10.25;;
31298;SDS011;17927;52.350;13.402;2023-09-12T06:16:44;10.82;;;9.77;;
31298;SDS011;17927;52.350;13.402;2023-09-12T06:19:10;12.38;;;9.80;;
31298;SDS011;17927;52.350;13.402;2023-09-12T06:21:35;10.25;;;9.32;;
31298;SDS011;17927;52.350;13.402;2023-09-12T06:24:13;11.20;;;10.13;;
31298;SDS011;17927;52.350;13.402;2023-09-12T06:26:46;10.55;;;9.52;;
31298;SDS011;17927;52.350;13.402;2023-09-12T06:29:11;11.98;;;9.90;;
31298;SDS011;17927;52.350;13.402;2023-09-12T06:31:38;15.10;;;10.57;;
31298;SDS011;17927;52.350;13.402;2023-09-12T06:34:04;16.15;;;11.65;;
31298;SDS011;17927;52.350;13.402;2023-09-12T06:36:29;13.77;;;10.82;;
31298;SDS011;17927;52.350;13.402;2023-09-12T06:38:55;11.98;;;10.88;;
31298;SDS011;17927;52.350;13.402;2023-09-12T06:41:23;14.73;;;10.55;;
31298;SDS011;17927;52.350;13.402;2023-09-12T06:43:48;23.33;;;12.63;;
31298;SDS011;17927;52.350;13.402;2023-09-12T06:46:14;15.68;;;10.70;;
31298;SDS011;17927;52.350;13.402;2023-09-12T06:48:39;24.25;;;17.63;;
31298;SDS011;17927;52.350;13.402;2023-09-12T06:51:05;15.20;;;10.88;;
31298;SDS011;17927;52.350;13.402;2023-09-12T06:53:31;10.75;;;9.75;;
31298;SDS011;17927;52.350;13.402;2023-09-12T06:55:56;16.27;;;9.48;;
31298;SDS011;17927;52.350;13.402;2023-09-12T06:58:22;11.88;;;9.43;;
31298;SDS011;17927;52.350;13.402;2023-09-12T07:00:48;12.48;;;10.43;;
31298;SDS011;17927;52.350;13.402;2023-09-12T07:03:13;20.65;;;13.77;;
31298;SDS011;17927;52.350;13.402;2023-09-12T07:05:38;11.70;;;10.57;;
31298;SDS011;17927;52.350;13.402;2023-09-12T07:08:05;11.45;;;8.88;;
31298;SDS011;17927;52.350;13.402;2023-09-12T07:10:30;9.50;;;8.52;;
31298;SDS011;17927;52.350;13.402;2023-09-12T07:12:55;11.13;;;8.52;;
31298;SDS011;17927;52.350;13.402;2023-09-12T07:15:21;9.55;;;8.65;;
31298;SDS011;17927;52.350;13.402;2023-09-12T07:17:46;11.98;;;9.00;;
31298;SDS011;17927;52.350;13.402;2023-09-12T07:20:12;10.43;;;9.50;;
31298;SDS011;17927;52.350;13.402;2023-09-12T07:22:38;9.85;;;8.88;;
31298;SDS011;17927;52.350;13.402;2023-09-12T07:25:05;18.55;;;9.07;;
31298;SDS011;17927;52.350;13.402;2023-09-12T07:27:31;13.57;;;8.27;;
31298;SDS011;17927;52.350;13.402;2023-09-12T07:29:56;13.65;;;8.93;;
31298;SDS011;17927;52.350;13.402;2023-09-12T07:32:21;16.25;;;8.43;;
31298;SDS011;17927;52.350;13.402;2023-09-12T07:34:47;10.98;;;9.02;;
31298;SDS011;17927;52.350;13.402;2023-09-12T07:37:13;15.80;;;9.35;;
31298;SDS011;17927;52.350;13.402;2023-09-12T07:39:39;9.57;;;8.65;;
31298;SDS011;17927;52.350;13.402;2023-09-12T07:42:04;10.73;;;9.70;;
31298;SDS011;17927;52.350;13.402;2023-09-12T07:44:29;15.85;;;9.85;;
31298;SDS011;17927;52.350;13.402;2023-09-12T07:46:55;15.02;;;10.00;;
31298;SDS011;17927;52.350;13.402;2023-09-12T07:49:20;13.38;;;9.55;;
31298;SDS011;17927;52.350;13.402;2023-09-12T07:51:45;15.23;;;9.32;;
31298;SDS011;17927;52.350;13.402;2023-09-12T07:54:10;16.48;;;10.18;;
31298;SDS011;17927;52.350;13.402;2023-09-12T07:56:36;10.70;;;8.50;;
31298;SDS011;17927;52.350;13.402;2023-09-12T07:59:01;10.43;;;8.15;;
31298;SDS011;17927;52.350;13.402;2023-09-12T08:01:26;12.90;;;8.35;;
31298;SDS011;17927;52.350;13.402;2023-09-12T08:03:52;9.38;;;7.85;;
31298;SDS011;17927;52.350;13.402;2023-09-12T08:06:17;16.23;;;7.85;;
31298;SDS011;17927;52.350;13.402;2023-09-12T08:08:43;8.75;;;7.80;;
31298;SDS011;17927;52.350;13.402;2023-09-12T08:11:08;8.02;;;7.25;;
31298;SDS011;17927;52.350;13.402;2023-09-12T08:13:33;10.95;;;7.90;;
31298;SDS011;17927;52.350;13.402;2023-09-12T08:15:58;11.77;;;7.47;;
31298;SDS011;17927;52.350;13.402;2023-09-12T08:18:28;15.50;;;8.60;;
31298;SDS011;17927;52.350;13.402;2023-09-12T08:20:54;14.93;;;7.63;;
31298;SDS011;17927;52.350;13.402;2023-09-12T08:23:20;15.88;;;7.47;;
31298;SDS011;17927;52.350;13.402;2023-09-12T08:25:45;8.60;;;6.88;;
31298;SDS011;17927;52.350;13.402;2023-09-12T08:28:10;8.50;;;6.13;;
31298;SDS011;17927;52.350;13.402;2023-09-12T08:30:35;11.40;;;7.10;;
31298;SDS011;17927;52.350;13.402;2023-09-12T08:33:01;9.35;;;6.80;;
31298;SDS011;17927;52.350;13.402;2023-09-12T08:35:29;15.80;;;6.57;;
31298;SDS011;17927;52.350;13.402;2023-09-12T08:37:55;14.13;;;6.97;;
31298;SDS011;17927;52.350;13.402;2023-09-12T08:40:20;12.38;;;7.15;;
31298;SDS011;17927;52.350;13.402;2023-09-12T08:42:45;10.90;;;6.88;;
31298;SDS011;17927;52.350;13.402;2023-09-12T08:45:15;8.45;;;6.03;;
31298;SDS011;17927;52.350;13.402;2023-09-12T08:47:42;10.07;;;6.10;;
31298;SDS011;17927;52.350;13.402;2023-09-12T08:50:12;8.50;;;6.20;;
31298;SDS011;17927;52.350;13.402;2023-09-12T08:52:42;8.83;;;6.23;;
31298;SDS011;17927;52.350;13.402;2023-09-12T08:55:10;7.55;;;6.13;;
31298;SDS011;17927;52.350;13.402;2023-09-12T08:57:36;12.52;;;6.00;;
31298;SDS011;17927;52.350;13.402;2023-09-12T09:00:05;10.93;;;6.10;;
31298;SDS011;17927;52.350;13.402;2023-09-12T09:02:34;11.55;;;5.97;;
31298;SDS011;17927;52.350;13.402;2023-09-12T09:05:01;11.63;;;5.45;;
31298;SDS011;17927;52.350;13.402;2023-09-12T09:07:29;10.30;;;5.22;;
31298;SDS011;17927;52.350;13.402;2023-09-12T09:09:58;10.40;;;5.03;;
31298;SDS011;17927;52.350;13.402;2023-09-12T09:12:26;8.82;;;5.47;;
31298;SDS011;17927;52.350;13.402;2023-09-12T09:14:52;10.50;;;4.80;;
31298;SDS011;17927;52.350;13.402;2023-09-12T09:17:17;8.70;;;5.00;;
31298;SDS011;17927;52.350;13.402;2023-09-12T09:19:44;12.57;;;5.60;;
31298;SDS011;17927;52.350;13.402;2023-09-12T09:22:10;11.55;;;4.97;;
31298;SDS011;17927;52.350;13.402;2023-09-12T09:24:35;14.02;;;4.72;;
31298;SDS011;17927;52.350;13.402;2023-09-12T09:27:01;9.75;;;5.10;;
31298;SDS011;17927;52.350;13.402;2023-09-12T09:29:26;6.53;;;4.30;;
31298;SDS011;17927;52.350;13.402;2023-09-12T09:31:59;13.95;;;4.85;;
31298;SDS011;17927;52.350;13.402;2023-09-12T09:34:25;18.02;;;5.25;;
31298;SDS011;17927;52.350;13.402;2023-09-12T09:36:53;6.63;;;4.40;;
31298;SDS011;17927;52.350;13.402;2023-09-12T09:39:20;11.70;;;4.32;;
31298;SDS011;17927;52.350;13.402;2023-09-12T09:41:52;11.38;;;4.30;;
31298;SDS011;17927;52.350;13.402;2023-09-12T09:44:18;19.00;;;4.93;;
31298;SDS011;17927;52.350;13.402;2023-09-12T09:46:46;11.95;;;4.47;;
31298;SDS011;17927;52.350;13.402;2023-09-12T09:49:17;9.82;;;5.25;;
31298;SDS011;17927;52.350;13.402;2023-09-12T09:51:44;11.93;;;4.50;;
31298;SDS011;17927;52.350;13.402;2023-09-12T09:54:10;8.45;;;5.18;;
31298;SDS011;17927;52.350;13.402;2023-09-12T09:56:55;11.75;;;5.45;;
31298;SDS011;17927;52.350;13.402;2023-09-12T09:59:21;18.08;;;6.38;;
31298;SDS011;17927;52.350;13.402;2023-09-12T10:01:48;10.38;;;5.55;;
31298;SDS011;17927;52.350;13.402;2023-09-12T10:04:15;15.20;;;6.20;;
31298;SDS011;17927;52.350;13.402;2023-09-12T10:06:44;14.13;;;6.25;;
31298;SDS011;17927;52.350;13.402;2023-09-12T10:09:12;9.77;;;5.47;;
31298;SDS011;17927;52.350;13.402;2023-09-12T10:11:39;15.48;;;5.45;;
31298;SDS011;17927;52.350;13.402;2023-09-12T10:14:05;15.50;;;6.30;;
31298;SDS011;17927;52.350;13.402;2023-09-12T10:16:36;7.85;;;5.97;;
31298;SDS011;17927;52.350;13.402;2023-09-12T10:19:11;12.15;;;6.07;;
31298;SDS011;17927;52.350;13.402;2023-09-12T10:24:09;9.93;;;6.10;;
31298;SDS011;17927;52.350;13.402;2023-09-12T10:26:35;15.65;;;6.00;;
31298;SDS011;17927;52.350;13.402;2023-09-12T10:29:01;15.00;;;6.40;;
31298;SDS011;17927;52.350;13.402;2023-09-12T10:31:27;13.02;;;5.50;;
31298;SDS011;17927;52.350;13.402;2023-09-12T10:33:54;12.45;;;5.57;;
31298;SDS011;17927;52.350;13.402;2023-09-12T10:36:19;12.93;;;5.45;;
31298;SDS011;17927;52.350;13.402;2023-09-12T10:38:47;13.60;;;6.63;;
31298;SDS011;17927;52.350;13.402;2023-09-12T10:41:13;14.25;;;6.55;;
31298;SDS011;17927;52.350;13.402;2023-09-12T10:43:39;14.93;;;5.63;;
31298;SDS011;17927;52.350;13.402;2023-09-12T10:46:06;13.00;;;6.82;;
31298;SDS011;17927;52.350;13.402;2023-09-12T10:48:32;12.48;;;5.43;;
31298;SDS011;17927;52.350;13.402;2023-09-12T10:50:59;16.60;;;6.95;;
31298;SDS011;17927;52.350;13.402;2023-09-12T10:53:26;16.00;;;6.22;;
31298;SDS011;17927;52.350;13.402;2023-09-12T10:56:00;14.43;;;6.40;;
31298;SDS011;17927;52.350;13.402;2023-09-12T11:01:31;10.23;;;4.82;;
31298;SDS011;17927;52.350;13.402;2023-09-12T11:03:58;13.10;;;5.43;;
31298;SDS011;17927;52.350;13.402;2023-09-12T11:06:29;13.65;;;4.75;;
31298;SDS011;17927;52.350;13.402;2023-09-12T11:11:39;11.63;;;5.15;;
31298;SDS011;17927;52.350;13.402;2023-09-12T11:14:06;13.73;;;5.00;;
31298;SDS011;17927;52.350;13.402;2023-09-12T11:16:32;16.08;;;5.10;;
31298;SDS011;17927;52.350;13.402;2023-09-12T11:21:49;12.90;;;5.95;;
31298;SDS011;17927;52.350;13.402;2023-09-12T11:29:26;8.85;;;4.88;;
31298;SDS011;17927;52.350;13.402;2023-09-12T11:31:56;16.15;;;5.63;;
31298;SDS011;17927;52.350;13.402;2023-09-12T11:34:24;12.48;;;5.30;;
31298;SDS011;17927;52.350;13.402;2023-09-12T11:36:57;9.18;;;5.13;;
31298;SDS011;17927;52.350;13.402;2023-09-12T11:39:29;8.45;;;4.80;;
31298;SDS011;17927;52.350;13.402;2023-09-12T11:41:56;13.43;;;5.38;;
31298;SDS011;17927;52.350;13.402;2023-09-12T11:44:22;9.15;;;5.30;;
31298;SDS011;17927;52.350;13.402;2023-09-12T11:46:48;14.95;;;5.65;;
31298;SDS011;17927;52.350;13.402;2023-09-12T11:49:15;9.80;;;5.78;;
31298;SDS011;17927;52.350;13.402;2023-09-12T11:51:47;23.95;;;6.85;;
31298;SDS011;17927;52.350;13.402;2023-09-12T11:54:19;9.68;;;5.75;;
31298;SDS011;17927;52.350;13.402;2023-09-12T11:56:49;11.15;;;7.05;;
31298;SDS011;17927;52.350;13.402;2023-09-12T11:59:15;12.02;;;6.03;;
31298;SDS011;17927;52.350;13.402;2023-09-12T12:01:44;10.40;;;5.05;;
31298;SDS011;17927;52.350;13.402;2023-09-12T12:04:10;21.77;;;5.75;;
31298;SDS011;17927;52.350;13.402;2023-09-12T12:06:35;11.13;;;5.75;;
31298;SDS011;17927;52.350;13.402;2023-09-12T12:09:01;13.25;;;4.85;;
31298;SDS011;17927;52.350;13.402;2023-09-12T12:11:28;9.65;;;4.57;;
31298;SDS011;17927;52.350;13.402;2023-09-12T12:13:53;8.43;;;5.72;;
31298;SDS011;17927;52.350;13.402;2023-09-12T12:16:18;11.60;;;5.60;;
31298;SDS011;17927;52.350;13.402;2023-09-12T12:18:44;10.13;;;5.65;;
31298;SDS011;17927;52.350;13.402;2023-09-12T12:21:09;10.80;;;5.55;;
31298;SDS011;17927;52.350;13.402;2023-09-12T12:23:34;11.18;;;5.70;;
31298;SDS011;17927;52.350;13.402;2023-09-12T12:26:05;16.40;;;5.72;;
31298;SDS011;17927;52.350;13.402;2023-09-12T12:28:32;14.43;;;5.47;;
31298;SDS011;17927;52.350;13.402;2023-09-12T12:30:57;16.10;;;5.68;;
31298;SDS011;17927;52.350;13.402;2023-09-12T12:33:24;7.47;;;5.60;;
31298;SDS011;17927;52.350;13.402;2023-09-12T12:35:49;11.82;;;5.32;;
31298;SDS011;17927;52.350;13.402;2023-09-12T12:38:34;7.57;;;5.38;;
31298;SDS011;17927;52.350;13.402;2023-09-12T12:41:00;13.95;;;5.57;;
31298;SDS011;17927;52.350;13.402;2023-09-12T12:43:26;9.77;;;5.10;;
31298;SDS011;17927;52.350;13.402;2023-09-12T12:45:55;12.32;;;5.43;;
31298;SDS011;17927;52.350;13.402;2023-09-12T12:48:29;12.05;;;5.10;;
31298;SDS011;17927;52.350;13.402;2023-09-12T12:50:59;7.88;;;4.60;;
31298;SDS011;17927;52.350;13.402;2023-09-12T12:53:37;12.25;;;5.35;;
31298;SDS011;17927;52.350;13.402;2023-09-12T12:56:06;12.60;;;5.10;;
31298;SDS011;17927;52.350;13.402;2023-09-12T12:58:31;8.38;;;4.70;;
31298;SDS011;17927;52.350;13.402;2023-09-12T13:00:58;7.05;;;5.15;;
31298;SDS011;17927;52.350;13.402;2023-09-12T13:03:23;7.57;;;4.75;;
31298;SDS011;17927;52.350;13.402;2023-09-12T13:05:48;9.73;;;5.00;;
31298;SDS011;17927;52.350;13.402;2023-09-12T13:08:14;7.15;;;4.50;;
31298;SDS011;17927;52.350;13.402;2023-09-12T13:10:39;5.38;;;4.82;;
31298;SDS011;17927;52.350;13.402;2023-09-12T13:13:07;8.38;;;4.43;;
31298;SDS011;17927;52.350;13.402;2023-09-12T13:15:32;7.15;;;4.63;;
31298;SDS011;17927;52.350;13.402;2023-09-12T13:17:57;8.20;;;4.43;;
31298;SDS011;17927;52.350;13.402;2023-09-12T13:20:23;10.53;;;4.77;;
31298;SDS011;17927;52.350;13.402;2023-09-12T13:22:48;11.23;;;4.18;;
31298;SDS011;17927;52.350;13.402;2023-09-12T13:25:14;9.02;;;4.30;;
31298;SDS011;17927;52.350;13.402;2023-09-12T13:27:39;11.23;;;4.57;;
31298;SDS011;17927;52.350;13.402;2023-09-12T13:30:05;11.05;;;4.32;;
31298;SDS011;17927;52.350;13.402;2023-09-12T13:32:31;7.38;;;4.32;;
31298;SDS011;17927;52.350;13.402;2023-09-12T13:34:58;6.57;;;4.10;;
31298;SDS011;17927;52.350;13.402;2023-09-12T13:37:23;7.93;;;4.00;;
31298;SDS011;17927;52.350;13.402;2023-09-12T13:39:48;9.27;;;4.30;;
31298;SDS011;17927;52.350;13.402;2023-09-12T13:42:17;10.63;;;4.60;;
31298;SDS011;17927;52.350;13.402;2023-09-12T13:44:49;5.32;;;3.95;;
31298;SDS011;17927;52.350;13.402;2023-09-12T13:47:15;7.18;;;3.80;;
31298;SDS011;17927;52.350;13.402;2023-09-12T13:49:46;10.88;;;4.00;;
31298;SDS011;17927;52.350;13.402;2023-09-12T13:52:12;8.30;;;4.22;;
31298;SDS011;17927;52.350;13.402;2023-09-12T13:54:37;6.28;;;3.90;;
31298;SDS011;17927;52.350;13.402;2023-09-12T13:57:02;11.73;;;4.83;;
31298;SDS011;17927;52.350;13.402;2023-09-12T13:59:28;7.43;;;3.95;;
31298;SDS011;17927;52.350;13.402;2023-09-12T14:01:53;6.97;;;4.18;;
31298;SDS011;17927;52.350;13.402;2023-09-12T14:04:18;9.60;;;4.30;;
31298;SDS011;17927;52.350;13.402;2023-09-12T14:06:45;11.80;;;4.38;;
31298;SDS011;17927;52.350;13.402;2023-09-12T14:09:10;10.27;;;4.00;;
31298;SDS011;17927;52.350;13.402;2023-09-12T14:11:35;9.98;;;4.50;;
31298;SDS011;17927;52.350;13.402;2023-09-12T14:14:01;9.27;;;4.13;;
31298;SDS011;17927;52.350;13.402;2023-09-12T14:16:27;11.75;;;4.60;;
31298;SDS011;17927;52.350;13.402;2023-09-12T14:18:52;7.23;;;3.90;;
31298;SDS011;17927;52.350;13.402;2023-09-12T14:21:18;9.47;;;4.23;;
31298;SDS011;17927;52.350;13.402;2023-09-12T14:23:43;7.45;;;3.85;;
31298;SDS011;17927;52.350;13.402;2023-09-12T14:26:08;6.10;;;4.32;;
31298;SDS011;17927;52.350;13.402;2023-09-12T14:28:33;10.50;;;4.50;;
31298;SDS011;17927;52.350;13.402;2023-09-12T14:30:59;8.63;;;3.97;;
31298;SDS011;17927;52.350;13.402;2023-09-12T14:33:25;8.75;;;4.50;;
31298;SDS011;17927;52.350;13.402;2023-09-12T14:35:50;13.03;;;3.87;;
31298;SDS011;17927;52.350;13.402;2023-09-12T14:38:16;14.45;;;4.90;;